Ambler, Pennsylvania
Current Conditions -  °F | °C
As of 1:15 PM on Thursday 29 Jan 2015 (Local Time) from KLOM Reporting Station
Clear Clear  
Wind Chill: 27°   Ceiling: Unl
Heat Index: 32°   Visibility: 10mi
Dew Point:   Wind: 5mph
Humidity: 38%   Direction: 170°S
Pressure: 30.2"   Gusts: NA
Location:  40.16°N, 75.22°W
Report Text: KLOM 291815Z AUTO 17004KT 10SM CLR 00/M13 A3020 RMK AO1
Loading
Personal Weather Stations






























Interactive Weather Map New forecast layout! Learn more

10-Day Weather Forecast

Advertisements
Track Severe Weather on mobile